Scotia, South Carolina
Current Conditions -  °F | °C
As of 11:15 AM on Friday 21 Nov 2014 (Local Time) from KJYL Reporting Station
Clear Clear  
Wind Chill: 64°   Ceiling: Unl
Heat Index: 64°   Visibility: 10mi
Dew Point: 33°   Wind: 9mph
Humidity: 32%   Direction: 360°N
Pressure: 30.39"   Gusts: NA
Location:  32.68°N, 81.24°W
Report Text: KJYL 211615Z AUTO 36008KT 10SM CLR 18/01 A3039 RMK AO2 T01800008
Loading
Personal Weather Stations






























Interactive Weather Map New forecast layout! Learn more

10-Day Weather Forecast

Advertisements
Track Severe Weather on mobile